sensor_id;sensor_type;location;lat;lon;timestamp;pressure;altitude;pressure_sealevel;temperature;humidity
39265;BME280;42646;51.910;7.724;2023-06-22T00:00:32;101287.56;;;20.97;nan
39265;BME280;42646;51.910;7.724;2023-06-22T00:03:00;101285.88;;;20.96;nan
39265;BME280;42646;51.910;7.724;2023-06-22T00:05:29;101279.16;;;20.92;nan
39265;BME280;42646;51.910;7.724;2023-06-22T00:07:57;101280.19;;;20.91;nan
39265;BME280;42646;51.910;7.724;2023-06-22T00:10:25;101275.19;;;20.88;nan
39265;BME280;42646;51.910;7.724;2023-06-22T00:12:53;101278.06;;;20.87;nan
39265;BME280;42646;51.910;7.724;2023-06-22T00:15:22;101272.00;;;20.85;nan
39265;BME280;42646;51.910;7.724;2023-06-22T00:17:52;101274.09;;;20.83;nan
39265;BME280;42646;51.910;7.724;2023-06-22T00:20:22;101268.00;;;20.80;nan
39265;BME280;42646;51.910;7.724;2023-06-22T00:22:49;101259.25;;;20.78;nan
39265;BME280;42646;51.910;7.724;2023-06-22T00:25:22;101261.31;;;20.76;nan
39265;BME280;42646;51.910;7.724;2023-06-22T00:27:50;101254.41;;;20.74;nan
39265;BME280;42646;51.910;7.724;2023-06-22T00:30:19;101246.50;;;20.72;nan
39265;BME280;42646;51.910;7.724;2023-06-22T00:32:47;101239.63;;;20.70;nan
39265;BME280;42646;51.910;7.724;2023-06-22T00:35:16;101246.22;;;20.67;nan
39265;BME280;42646;51.910;7.724;2023-06-22T00:37:44;101250.16;;;20.65;nan
39265;BME280;42646;51.910;7.724;2023-06-22T00:40:13;101256.78;;;20.62;nan
39265;BME280;42646;51.910;7.724;2023-06-22T00:42:41;101255.28;;;20.60;nan
39265;BME280;42646;51.910;7.724;2023-06-22T00:45:09;101259.03;;;20.59;nan
39265;BME280;42646;51.910;7.724;2023-06-22T00:47:37;101249.41;;;20.56;nan
39265;BME280;42646;51.910;7.724;2023-06-22T00:53:05;101250.19;;;20.50;nan
39265;BME280;42646;51.910;7.724;2023-06-22T00:55:36;101248.69;;;20.47;nan
39265;BME280;42646;51.910;7.724;2023-06-22T00:58:05;101246.31;;;20.44;nan
39265;BME280;42646;51.910;7.724;2023-06-22T01:00:37;101247.56;;;20.42;nan
39265;BME280;42646;51.910;7.724;2023-06-22T01:03:05;101243.53;;;20.38;nan
39265;BME280;42646;51.910;7.724;2023-06-22T01:05:36;101245.41;;;20.37;nan
39265;BME280;42646;51.910;7.724;2023-06-22T01:08:19;101249.34;;;20.35;nan
39265;BME280;42646;51.910;7.724;2023-06-22T01:10:53;101243.47;;;20.31;nan
39265;BME280;42646;51.910;7.724;2023-06-22T01:13:28;101250.09;;;20.28;nan
39265;BME280;42646;51.910;7.724;2023-06-22T01:16:00;101251.28;;;20.26;nan
39265;BME280;42646;51.910;7.724;2023-06-22T01:18:30;101251.69;;;20.23;nan
39265;BME280;42646;51.910;7.724;2023-06-22T01:21:00;101253.91;;;20.19;nan
39265;BME280;42646;51.910;7.724;2023-06-22T01:24:02;101260.34;;;20.18;nan
39265;BME280;42646;51.910;7.724;2023-06-22T01:26:42;101257.34;;;20.13;nan
39265;BME280;42646;51.910;7.724;2023-06-22T01:29:12;101255.03;;;20.10;nan
39265;BME280;42646;51.910;7.724;2023-06-22T01:31:43;101246.25;;;20.08;nan
39265;BME280;42646;51.910;7.724;2023-06-22T01:34:13;101251.84;;;20.07;nan
39265;BME280;42646;51.910;7.724;2023-06-22T01:36:42;101249.50;;;20.04;nan
39265;BME280;42646;51.910;7.724;2023-06-22T01:39:11;101252.59;;;20.00;nan
39265;BME280;42646;51.910;7.724;2023-06-22T01:41:41;101251.97;;;19.98;nan
39265;BME280;42646;51.910;7.724;2023-06-22T01:44:11;101249.63;;;19.95;nan
39265;BME280;42646;51.910;7.724;2023-06-22T01:46:41;101242.53;;;19.94;nan
39265;BME280;42646;51.910;7.724;2023-06-22T01:49:09;101241.91;;;19.92;nan
39265;BME280;42646;51.910;7.724;2023-06-22T01:51:42;101250.34;;;19.89;nan
39265;BME280;42646;51.910;7.724;2023-06-22T01:54:10;101238.91;;;19.87;nan
39265;BME280;42646;51.910;7.724;2023-06-22T01:56:38;101248.19;;;19.85;nan
39265;BME280;42646;51.910;7.724;2023-06-22T01:59:14;101243.00;;;19.83;nan
39265;BME280;42646;51.910;7.724;2023-06-22T02:01:50;101240.47;;;19.82;nan
39265;BME280;42646;51.910;7.724;2023-06-22T02:04:26;101243.34;;;19.80;nan
39265;BME280;42646;51.910;7.724;2023-06-22T02:06:57;101238.31;;;19.77;nan
39265;BME280;42646;51.910;7.724;2023-06-22T02:09:28;101241.22;;;19.76;nan
39265;BME280;42646;51.910;7.724;2023-06-22T02:12:00;101245.09;;;19.73;nan
39265;BME280;42646;51.910;7.724;2023-06-22T02:14:31;101240.94;;;19.70;nan
39265;BME280;42646;51.910;7.724;2023-06-22T02:17:01;101255.47;;;19.69;nan
39265;BME280;42646;51.910;7.724;2023-06-22T02:19:30;101251.25;;;19.67;nan
39265;BME280;42646;51.910;7.724;2023-06-22T02:22:01;101250.41;;;19.66;nan
39265;BME280;42646;51.910;7.724;2023-06-22T02:24:54;101242.50;;;19.65;nan
39265;BME280;42646;51.910;7.724;2023-06-22T02:27:24;101235.78;;;19.61;nan
39265;BME280;42646;51.910;7.724;2023-06-22T02:29:53;101235.97;;;19.59;nan
39265;BME280;42646;51.910;7.724;2023-06-22T02:32:23;101237.16;;;19.57;nan
39265;BME280;42646;51.910;7.724;2023-06-22T02:34:52;101243.56;;;19.56;nan
39265;BME280;42646;51.910;7.724;2023-06-22T02:37:22;101240.84;;;19.56;nan
39265;BME280;42646;51.910;7.724;2023-06-22T02:39:51;101238.72;;;19.51;nan
39265;BME280;42646;51.910;7.724;2023-06-22T02:42:20;101237.84;;;19.51;nan
39265;BME280;42646;51.910;7.724;2023-06-22T02:44:48;101242.59;;;19.48;nan
39265;BME280;42646;51.910;7.724;2023-06-22T02:47:17;101243.63;;;19.47;nan
39265;BME280;42646;51.910;7.724;2023-06-22T02:49:45;101241.13;;;19.46;nan
39265;BME280;42646;51.910;7.724;2023-06-22T02:52:15;101243.00;;;19.45;nan
39265;BME280;42646;51.910;7.724;2023-06-22T02:54:44;101236.06;;;19.43;nan
39265;BME280;42646;51.910;7.724;2023-06-22T02:57:13;101237.09;;;19.42;nan
39265;BME280;42646;51.910;7.724;2023-06-22T02:59:43;101232.94;;;19.39;nan
39265;BME280;42646;51.910;7.724;2023-06-22T03:02:12;101237.66;;;19.37;nan
39265;BME280;42646;51.910;7.724;2023-06-22T03:04:43;101234.31;;;19.35;nan
39265;BME280;42646;51.910;7.724;2023-06-22T03:07:12;101233.66;;;19.33;nan
39265;BME280;42646;51.910;7.724;2023-06-22T03:09:39;101232.78;;;19.33;nan
39265;BME280;42646;51.910;7.724;2023-06-22T03:12:09;101231.31;;;19.30;nan
39265;BME280;42646;51.910;7.724;2023-06-22T03:14:50;101229.63;;;19.29;nan
39265;BME280;42646;51.910;7.724;2023-06-22T03:17:18;101229.97;;;19.26;nan
39265;BME280;42646;51.910;7.724;2023-06-22T03:19:48;101229.34;;;19.24;nan
39265;BME280;42646;51.910;7.724;2023-06-22T03:22:16;101222.25;;;19.23;nan
39265;BME280;42646;51.910;7.724;2023-06-22T03:24:44;101225.16;;;19.21;nan
39265;BME280;42646;51.910;7.724;2023-06-22T03:27:12;101225.50;;;19.18;nan
39265;BME280;42646;51.910;7.724;2023-06-22T03:29:39;101220.94;;;19.19;nan
39265;BME280;42646;51.910;7.724;2023-06-22T03:32:09;101218.44;;;19.17;nan
39265;BME280;42646;51.910;7.724;2023-06-22T03:34:37;101219.25;;;19.18;nan
39265;BME280;42646;51.910;7.724;2023-06-22T03:37:08;101218.63;;;19.16;nan
39265;BME280;42646;51.910;7.724;2023-06-22T03:39:36;101227.69;;;19.15;nan
39265;BME280;42646;51.910;7.724;2023-06-22T03:42:06;101225.56;;;19.10;nan
39265;BME280;42646;51.910;7.724;2023-06-22T03:44:36;101228.06;;;19.12;nan
39265;BME280;42646;51.910;7.724;2023-06-22T03:47:05;101217.63;;;19.09;nan
39265;BME280;42646;51.910;7.724;2023-06-22T03:49:35;101223.22;;;19.07;nan
39265;BME280;42646;51.910;7.724;2023-06-22T03:52:03;101226.94;;;19.06;nan
39265;BME280;42646;51.910;7.724;2023-06-22T03:54:33;101226.28;;;19.04;nan
39265;BME280;42646;51.910;7.724;2023-06-22T03:57:00;101224.59;;;19.03;nan
39265;BME280;42646;51.910;7.724;2023-06-22T03:59:30;101225.59;;;19.02;nan
39265;BME280;42646;51.910;7.724;2023-06-22T04:01:58;101222.06;;;19.02;nan
39265;BME280;42646;51.910;7.724;2023-06-22T04:04:29;101223.28;;;18.99;nan
39265;BME280;42646;51.910;7.724;2023-06-22T04:06:57;101224.47;;;18.97;nan
39265;BME280;42646;51.910;7.724;2023-06-22T04:09:26;101224.31;;;18.98;nan
39265;BME280;42646;51.910;7.724;2023-06-22T04:11:55;101220.59;;;18.99;nan
39265;BME280;42646;51.910;7.724;2023-06-22T04:17:43;101201.53;;;19.01;nan
39265;BME280;42646;51.910;7.724;2023-06-22T04:20:11;101210.25;;;19.03;nan
39265;BME280;42646;51.910;7.724;2023-06-22T04:22:39;101210.94;;;19.05;nan
39265;BME280;42646;51.910;7.724;2023-06-22T04:25:07;101222.38;;;19.07;nan
39265;BME280;42646;51.910;7.724;2023-06-22T04:27:36;101213.25;;;19.08;nan
39265;BME280;42646;51.910;7.724;2023-06-22T04:30:07;101211.91;;;19.12;nan
39265;BME280;42646;51.910;7.724;2023-06-22T04:32:38;101200.72;;;19.15;nan
39265;BME280;42646;51.910;7.724;2023-06-22T04:35:06;101200.38;;;19.18;nan
39265;BME280;42646;51.910;7.724;2023-06-22T04:37:35;101201.88;;;19.20;nan
39265;BME280;42646;51.910;7.724;2023-06-22T04:40:05;101210.44;;;19.24;nan
39265;BME280;42646;51.910;7.724;2023-06-22T04:42:37;101210.09;;;19.27;nan
39265;BME280;42646;51.910;7.724;2023-06-22T04:45:05;101207.50;;;19.34;nan
39265;BME280;42646;51.910;7.724;2023-06-22T04:47:37;101201.28;;;19.33;nan
39265;BME280;42646;51.910;7.724;2023-06-22T04:50:06;101209.00;;;19.36;nan
39265;BME280;42646;51.910;7.724;2023-06-22T04:52:35;101207.78;;;19.39;nan
39265;BME280;42646;51.910;7.724;2023-06-22T04:55:03;101208.78;;;19.38;nan
39265;BME280;42646;51.910;7.724;2023-06-22T04:57:59;101199.53;;;19.40;nan
39265;BME280;42646;51.910;7.724;2023-06-22T05:00:31;101194.78;;;19.42;nan
39265;BME280;42646;51.910;7.724;2023-06-22T05:03:02;101201.69;;;19.45;nan
39265;BME280;42646;51.910;7.724;2023-06-22T05:05:44;101195.91;;;19.48;nan
39265;BME280;42646;51.910;7.724;2023-06-22T05:08:13;101191.81;;;19.52;nan
39265;BME280;42646;51.910;7.724;2023-06-22T05:10:42;101189.41;;;19.57;nan
39265;BME280;42646;51.910;7.724;2023-06-22T05:13:32;101188.03;;;19.61;nan
39265;BME280;42646;51.910;7.724;2023-06-22T05:16:01;101189.63;;;19.70;nan
39265;BME280;42646;51.910;7.724;2023-06-22T05:18:29;101186.09;;;19.70;nan
39265;BME280;42646;51.910;7.724;2023-06-22T05:20:58;101194.50;;;19.75;nan
39265;BME280;42646;51.910;7.724;2023-06-22T05:23:26;101183.94;;;19.80;nan
39265;BME280;42646;51.910;7.724;2023-06-22T05:25:54;101179.50;;;19.87;nan
39265;BME280;42646;51.910;7.724;2023-06-22T05:28:24;101178.75;;;19.93;nan
39265;BME280;42646;51.910;7.724;2023-06-22T05:30:58;101186.94;;;20.00;nan
39265;BME280;42646;51.910;7.724;2023-06-22T05:33:28;101188.06;;;20.06;nan
39265;BME280;42646;51.910;7.724;2023-06-22T05:35:56;101192.91;;;20.10;nan
39265;BME280;42646;51.910;7.724;2023-06-22T05:38:23;101193.16;;;20.15;nan
39265;BME280;42646;51.910;7.724;2023-06-22T05:40:52;101191.19;;;20.24;nan
39265;BME280;42646;51.910;7.724;2023-06-22T05:43:20;101193.97;;;20.31;nan
39265;BME280;42646;51.910;7.724;2023-06-22T05:45:48;101198.00;;;20.35;nan
39265;BME280;42646;51.910;7.724;2023-06-22T05:48:17;101196.19;;;20.42;nan
39265;BME280;42646;51.910;7.724;2023-06-22T05:50:45;101194.25;;;20.50;nan
39265;BME280;42646;51.910;7.724;2023-06-22T05:53:38;101181.66;;;20.58;nan
39265;BME280;42646;51.910;7.724;2023-06-22T05:56:14;101188.81;;;20.65;nan
39265;BME280;42646;51.910;7.724;2023-06-22T05:58:42;101189.72;;;20.72;nan
39265;BME280;42646;51.910;7.724;2023-06-22T06:01:10;101190.81;;;20.78;nan
39265;BME280;42646;51.910;7.724;2023-06-22T06:03:40;101187.34;;;20.84;nan
39265;BME280;42646;51.910;7.724;2023-06-22T06:06:08;101192.81;;;20.91;nan
39265;BME280;42646;51.910;7.724;2023-06-22T06:08:38;101194.75;;;20.97;nan
39265;BME280;42646;51.910;7.724;2023-06-22T06:11:06;101191.25;;;21.03;nan
39265;BME280;42646;51.910;7.724;2023-06-22T06:13:33;101197.97;;;21.07;nan
39265;BME280;42646;51.910;7.724;2023-06-22T06:16:25;101203.91;;;21.17;nan
39265;BME280;42646;51.910;7.724;2023-06-22T06:18:55;101202.88;;;21.18;nan
39265;BME280;42646;51.910;7.724;2023-06-22T06:21:25;101199.59;;;21.23;nan
39265;BME280;42646;51.910;7.724;2023-06-22T06:23:55;101198.13;;;21.27;nan
39265;BME280;42646;51.910;7.724;2023-06-22T06:26:23;101195.91;;;21.30;nan
39265;BME280;42646;51.910;7.724;2023-06-22T06:28:55;101195.34;;;21.35;nan
39265;BME280;42646;51.910;7.724;2023-06-22T06:31:25;101209.31;;;21.39;nan
39265;BME280;42646;51.910;7.724;2023-06-22T06:33:56;101213.31;;;21.43;nan
39265;BME280;42646;51.910;7.724;2023-06-22T06:36:24;101214.78;;;21.45;nan
39265;BME280;42646;51.910;7.724;2023-06-22T06:38:51;101218.97;;;21.48;nan
39265;BME280;42646;51.910;7.724;2023-06-22T06:41:19;101224.81;;;21.51;nan
39265;BME280;42646;51.910;7.724;2023-06-22T06:43:49;101216.31;;;21.54;nan
39265;BME280;42646;51.910;7.724;2023-06-22T06:46:17;101213.03;;;21.59;nan
39265;BME280;42646;51.910;7.724;2023-06-22T06:48:47;101221.38;;;21.64;nan
39265;BME280;42646;51.910;7.724;2023-06-22T06:51:16;101213.91;;;21.66;nan
39265;BME280;42646;51.910;7.724;2023-06-22T06:53:44;101208.91;;;21.70;nan
39265;BME280;42646;51.910;7.724;2023-06-22T06:56:12;101211.22;;;21.73;nan
39265;BME280;42646;51.910;7.724;2023-06-22T06:58:40;101210.66;;;21.77;nan
39265;BME280;42646;51.910;7.724;2023-06-22T07:01:13;101213.97;;;21.79;nan
39265;BME280;42646;51.910;7.724;2023-06-22T07:03:41;101215.91;;;21.85;nan
39265;BME280;42646;51.910;7.724;2023-06-22T07:06:09;101206.56;;;21.88;nan
39265;BME280;42646;51.910;7.724;2023-06-22T07:08:38;101207.81;;;21.92;nan
39265;BME280;42646;51.910;7.724;2023-06-22T07:11:06;101205.34;;;21.97;nan
39265;BME280;42646;51.910;7.724;2023-06-22T07:13:36;101201.19;;;22.01;nan
39265;BME280;42646;51.910;7.724;2023-06-22T07:16:04;101196.66;;;22.08;nan
39265;BME280;42646;51.910;7.724;2023-06-22T07:18:34;101197.75;;;22.14;nan
39265;BME280;42646;51.910;7.724;2023-06-22T07:21:03;101196.72;;;22.15;nan
39265;BME280;42646;51.910;7.724;2023-06-22T07:23:33;101195.28;;;22.19;nan
39265;BME280;42646;51.910;7.724;2023-06-22T07:26:02;101190.91;;;22.18;nan
39265;BME280;42646;51.910;7.724;2023-06-22T07:28:33;101180.69;;;22.20;nan
39265;BME280;42646;51.910;7.724;2023-06-22T07:31:03;101174.44;;;22.20;nan
39265;BME280;42646;51.910;7.724;2023-06-22T07:33:32;101171.72;;;22.20;nan
39265;BME280;42646;51.910;7.724;2023-06-22T07:36:00;101174.66;;;22.18;nan
39265;BME280;42646;51.910;7.724;2023-06-22T07:38:29;101181.06;;;22.17;nan
39265;BME280;42646;51.910;7.724;2023-06-22T07:40:59;101181.72;;;22.19;nan
39265;BME280;42646;51.910;7.724;2023-06-22T07:43:28;101168.19;;;22.19;nan
39265;BME280;42646;51.910;7.724;2023-06-22T07:45:56;101172.34;;;22.22;nan
39265;BME280;42646;51.910;7.724;2023-06-22T07:48:24;101170.91;;;22.26;nan
39265;BME280;42646;51.910;7.724;2023-06-22T07:50:52;101167.16;;;22.27;nan
39265;BME280;42646;51.910;7.724;2023-06-22T07:53:23;101171.97;;;22.31;nan
39265;BME280;42646;51.910;7.724;2023-06-22T07:55:55;101175.53;;;22.32;nan
39265;BME280;42646;51.910;7.724;2023-06-22T07:58:23;101169.88;;;22.33;nan
39265;BME280;42646;51.910;7.724;2023-06-22T08:00:52;101176.97;;;22.34;nan
39265;BME280;42646;51.910;7.724;2023-06-22T08:03:20;101168.84;;;22.34;nan
39265;BME280;42646;51.910;7.724;2023-06-22T08:05:48;101167.84;;;22.35;nan
39265;BME280;42646;51.910;7.724;2023-06-22T08:08:16;101166.78;;;22.36;nan
39265;BME280;42646;51.910;7.724;2023-06-22T08:10:44;101162.81;;;22.39;nan
39265;BME280;42646;51.910;7.724;2023-06-22T08:13:12;101167.00;;;22.42;nan
39265;BME280;42646;51.910;7.724;2023-06-22T08:15:40;101160.72;;;22.41;nan
39265;BME280;42646;51.910;7.724;2023-06-22T08:18:35;101157.63;;;22.44;nan
39265;BME280;42646;51.910;7.724;2023-06-22T08:21:03;101153.03;;;22.45;nan
39265;BME280;42646;51.910;7.724;2023-06-22T08:23:31;101159.09;;;22.47;nan
39265;BME280;42646;51.910;7.724;2023-06-22T08:26:00;101164.09;;;22.50;nan
39265;BME280;42646;51.910;7.724;2023-06-22T08:28:27;101146.59;;;22.52;nan
39265;BME280;42646;51.910;7.724;2023-06-22T08:30:55;101148.06;;;22.55;nan
39265;BME280;42646;51.910;7.724;2023-06-22T08:33:23;101144.75;;;22.59;nan
39265;BME280;42646;51.910;7.724;2023-06-22T08:35:58;101141.81;;;22.61;nan
39265;BME280;42646;51.910;7.724;2023-06-22T08:38:26;101142.88;;;22.66;nan
39265;BME280;42646;51.910;7.724;2023-06-22T08:40:55;101138.91;;;22.69;nan
39265;BME280;42646;51.910;7.724;2023-06-22T08:43:25;101130.38;;;22.72;nan
39265;BME280;42646;51.910;7.724;2023-06-22T08:45:53;101128.06;;;22.76;nan
39265;BME280;42646;51.910;7.724;2023-06-22T08:48:21;101117.63;;;22.79;nan
39265;BME280;42646;51.910;7.724;2023-06-22T08:50:48;101111.78;;;22.82;nan
39265;BME280;42646;51.910;7.724;2023-06-22T08:53:18;101104.06;;;22.86;nan
39265;BME280;42646;51.910;7.724;2023-06-22T08:55:47;101096.81;;;22.93;nan
39265;BME280;42646;51.910;7.724;2023-06-22T08:58:17;101106.63;;;23.01;nan
39265;BME280;42646;51.910;7.724;2023-06-22T09:00:46;101109.34;;;23.07;nan
39265;BME280;42646;51.910;7.724;2023-06-22T09:03:14;101113.94;;;23.13;nan
39265;BME280;42646;51.910;7.724;2023-06-22T09:05:47;101106.81;;;23.19;nan
39265;BME280;42646;51.910;7.724;2023-06-22T09:08:15;101103.28;;;23.25;nan
39265;BME280;42646;51.910;7.724;2023-06-22T09:10:44;101097.00;;;23.25;nan
39265;BME280;42646;51.910;7.724;2023-06-22T09:13:13;101097.41;;;23.28;nan
39265;BME280;42646;51.910;7.724;2023-06-22T09:15:41;101092.41;;;23.32;nan
39265;BME280;42646;51.910;7.724;2023-06-22T09:18:10;101089.06;;;23.36;nan
39265;BME280;42646;51.910;7.724;2023-06-22T09:20:40;101081.91;;;23.42;nan
39265;BME280;42646;51.910;7.724;2023-06-22T09:23:08;101075.00;;;23.46;nan
39265;BME280;42646;51.910;7.724;2023-06-22T09:25:36;101075.81;;;23.53;nan
39265;BME280;42646;51.910;7.724;2023-06-22T09:28:05;101070.00;;;23.63;nan
39265;BME280;42646;51.910;7.724;2023-06-22T09:30:34;101054.28;;;23.71;nan
39265;BME280;42646;51.910;7.724;2023-06-22T09:33:02;101061.38;;;23.79;nan
39265;BME280;42646;51.910;7.724;2023-06-22T09:35:33;101049.19;;;23.88;nan
39265;BME280;42646;51.910;7.724;2023-06-22T09:38:00;101041.81;;;24.02;nan
39265;BME280;42646;51.910;7.724;2023-06-22T09:40:29;101057.00;;;24.16;nan
39265;BME280;42646;51.910;7.724;2023-06-22T09:42:59;101060.91;;;24.27;nan
39265;BME280;42646;51.910;7.724;2023-06-22T09:45:29;101055.22;;;24.35;nan
39265;BME280;42646;51.910;7.724;2023-06-22T09:47:57;101050.97;;;24.46;nan
39265;BME280;42646;51.910;7.724;2023-06-22T09:50:26;101060.53;;;24.55;nan
39265;BME280;42646;51.910;7.724;2023-06-22T09:52:54;101055.66;;;24.64;nan
39265;BME280;42646;51.910;7.724;2023-06-22T09:55:46;101067.09;;;24.72;nan
39265;BME280;42646;51.910;7.724;2023-06-22T09:58:15;101069.97;;;24.77;nan
39265;BME280;42646;51.910;7.724;2023-06-22T10:00:44;101072.03;;;24.82;nan
39265;BME280;42646;51.910;7.724;2023-06-22T10:03:12;101078.72;;;24.86;nan
39265;BME280;42646;51.910;7.724;2023-06-22T10:05:40;101066.53;;;24.89;nan
39265;BME280;42646;51.910;7.724;2023-06-22T10:08:10;101068.38;;;24.95;nan
39265;BME280;42646;51.910;7.724;2023-06-22T10:10:38;101071.84;;;25.02;nan
39265;BME280;42646;51.910;7.724;2023-06-22T10:13:08;101070.78;;;25.10;nan
39265;BME280;42646;51.910;7.724;2023-06-22T10:15:38;101056.72;;;25.13;nan
39265;BME280;42646;51.910;7.724;2023-06-22T10:18:09;101053.09;;;25.19;nan
39265;BME280;42646;51.910;7.724;2023-06-22T10:20:37;101054.31;;;25.23;nan
39265;BME280;42646;51.910;7.724;2023-06-22T10:23:05;101057.19;;;25.28;nan
39265;BME280;42646;51.910;7.724;2023-06-22T10:25:33;101050.38;;;25.37;nan
39265;BME280;42646;51.910;7.724;2023-06-22T10:28:02;101047.38;;;25.45;nan
39265;BME280;42646;51.910;7.724;2023-06-22T10:30:31;101035.56;;;25.51;nan
39265;BME280;42646;51.910;7.724;2023-06-22T10:32:59;101035.47;;;25.58;nan
39265;BME280;42646;51.910;7.724;2023-06-22T10:35:28;101038.03;;;25.71;nan
39265;BME280;42646;51.910;7.724;2023-06-22T10:38:00;101028.75;;;25.79;nan
39265;BME280;42646;51.910;7.724;2023-06-22T10:40:30;101032.59;;;25.90;nan
39265;BME280;42646;51.910;7.724;2023-06-22T10:42:59;101012.72;;;26.01;nan
39265;BME280;42646;51.910;7.724;2023-06-22T10:45:28;101013.25;;;26.09;nan
39265;BME280;42646;51.910;7.724;2023-06-22T10:47:56;101007.06;;;26.14;nan
39265;BME280;42646;51.910;7.724;2023-06-22T10:50:24;101000.09;;;26.18;nan
39265;BME280;42646;51.910;7.724;2023-06-22T10:52:53;101003.88;;;26.17;nan
39265;BME280;42646;51.910;7.724;2023-06-22T10:55:24;101000.56;;;26.15;nan
39265;BME280;42646;51.910;7.724;2023-06-22T10:57:52;100997.84;;;26.15;nan
39265;BME280;42646;51.910;7.724;2023-06-22T11:00:20;100991.53;;;26.15;nan
39265;BME280;42646;51.910;7.724;2023-06-22T11:02:47;100995.31;;;26.14;nan
39265;BME280;42646;51.910;7.724;2023-06-22T11:05:16;100993.44;;;26.14;nan
39265;BME280;42646;51.910;7.724;2023-06-22T11:07:44;100985.50;;;26.13;nan
39265;BME280;42646;51.910;7.724;2023-06-22T11:10:14;100981.09;;;26.12;nan
39265;BME280;42646;51.910;7.724;2023-06-22T11:12:42;100985.25;;;26.14;nan
39265;BME280;42646;51.910;7.724;2023-06-22T11:15:10;100986.06;;;26.15;nan
39265;BME280;42646;51.910;7.724;2023-06-22T11:17:38;100982.06;;;26.17;nan
39265;BME280;42646;51.910;7.724;2023-06-22T11:20:07;100971.75;;;26.19;nan
39265;BME280;42646;51.910;7.724;2023-06-22T11:22:38;100966.91;;;26.21;nan
39265;BME280;42646;51.910;7.724;2023-06-22T11:25:07;100961.56;;;26.26;nan
39265;BME280;42646;51.910;7.724;2023-06-22T11:27:37;100961.47;;;26.33;nan
39265;BME280;42646;51.910;7.724;2023-06-22T11:30:06;100968.94;;;26.37;nan
39265;BME280;42646;51.910;7.724;2023-06-22T11:32:35;100971.44;;;26.39;nan
39265;BME280;42646;51.910;7.724;2023-06-22T11:35:03;100951.50;;;26.38;nan
39265;BME280;42646;51.910;7.724;2023-06-22T11:37:34;100961.72;;;26.43;nan
39265;BME280;42646;51.910;7.724;2023-06-22T11:40:02;100948.81;;;26.50;nan
39265;BME280;42646;51.910;7.724;2023-06-22T11:42:34;100946.94;;;26.51;nan
39265;BME280;42646;51.910;7.724;2023-06-22T11:45:07;100961.75;;;26.55;nan
39265;BME280;42646;51.910;7.724;2023-06-22T11:47:36;100962.13;;;26.58;nan
39265;BME280;42646;51.910;7.724;2023-06-22T11:50:05;100962.69;;;26.60;nan
39265;BME280;42646;51.910;7.724;2023-06-22T11:52:33;100965.78;;;26.64;nan
39265;BME280;42646;51.910;7.724;2023-06-22T11:55:03;100971.38;;;26.69;nan
39265;BME280;42646;51.910;7.724;2023-06-22T11:57:33;100985.38;;;26.73;nan
39265;BME280;42646;51.910;7.724;2023-06-22T12:00:02;100985.97;;;26.75;nan
39265;BME280;42646;51.910;7.724;2023-06-22T12:02:34;100987.50;;;26.82;nan
39265;BME280;42646;51.910;7.724;2023-06-22T12:05:03;100980.03;;;26.78;nan
39265;BME280;42646;51.910;7.724;2023-06-22T12:07:31;100981.34;;;26.75;nan
39265;BME280;42646;51.910;7.724;2023-06-22T12:09:58;100982.88;;;26.71;nan
39265;BME280;42646;51.910;7.724;2023-06-22T12:12:27;100977.44;;;26.71;nan
39265;BME280;42646;51.910;7.724;2023-06-22T12:14:55;100979.31;;;26.71;nan
39265;BME280;42646;51.910;7.724;2023-06-22T12:17:22;100968.53;;;26.64;nan
39265;BME280;42646;51.910;7.724;2023-06-22T12:19:53;100970.31;;;26.58;nan
39265;BME280;42646;51.910;7.724;2023-06-22T12:22:22;100968.53;;;26.52;nan
39265;BME280;42646;51.910;7.724;2023-06-22T12:24:49;100972.19;;;26.46;nan
39265;BME280;42646;51.910;7.724;2023-06-22T12:27:18;100975.38;;;26.43;nan
39265;BME280;42646;51.910;7.724;2023-06-22T12:29:46;100976.91;;;26.39;nan
39265;BME280;42646;51.910;7.724;2023-06-22T12:32:14;100971.06;;;26.35;nan
39265;BME280;42646;51.910;7.724;2023-06-22T12:34:43;100974.75;;;26.29;nan
39265;BME280;42646;51.910;7.724;2023-06-22T12:37:12;100976.50;;;26.24;nan
39265;BME280;42646;51.910;7.724;2023-06-22T12:39:41;100984.56;;;26.19;nan
39265;BME280;42646;51.910;7.724;2023-06-22T12:42:09;100986.81;;;26.10;nan
39265;BME280;42646;51.910;7.724;2023-06-22T12:44:39;100986.91;;;26.03;nan
39265;BME280;42646;51.910;7.724;2023-06-22T12:47:07;100992.66;;;25.95;nan
39265;BME280;42646;51.910;7.724;2023-06-22T12:49:35;100995.34;;;25.83;nan
39265;BME280;42646;51.910;7.724;2023-06-22T12:52:08;100991.56;;;25.66;nan
39265;BME280;42646;51.910;7.724;2023-06-22T12:54:38;100989.50;;;25.50;nan
39265;BME280;42646;51.910;7.724;2023-06-22T12:57:19;100972.69;;;25.35;nan
39265;BME280;42646;51.910;7.724;2023-06-22T12:59:47;100979.13;;;25.22;nan
39265;BME280;42646;51.910;7.724;2023-06-22T13:02:15;100974.19;;;25.12;nan
39265;BME280;42646;51.910;7.724;2023-06-22T13:04:43;100966.97;;;24.99;nan
39265;BME280;42646;51.910;7.724;2023-06-22T13:07:10;100962.59;;;24.80;nan
39265;BME280;42646;51.910;7.724;2023-06-22T13:09:42;100951.19;;;24.65;nan
39265;BME280;42646;51.910;7.724;2023-06-22T13:12:13;100948.38;;;24.53;nan
39265;BME280;42646;51.910;7.724;2023-06-22T13:14:40;100947.91;;;24.38;nan
39265;BME280;42646;51.910;7.724;2023-06-22T13:17:09;100948.59;;;24.27;nan
39265;BME280;42646;51.910;7.724;2023-06-22T13:19:39;100942.41;;;24.13;nan
39265;BME280;42646;51.910;7.724;2023-06-22T13:22:26;100924.94;;;24.02;nan
39265;BME280;42646;51.910;7.724;2023-06-22T13:24:55;100920.22;;;23.91;nan
39265;BME280;42646;51.910;7.724;2023-06-22T13:27:23;100910.66;;;23.82;nan
39265;BME280;42646;51.910;7.724;2023-06-22T13:29:51;100893.97;;;23.71;nan